Thursday, May 24, 2018, 9:34 AM GMT
Back to Local

CYHZ, Halifax International Airport

Location: , , Canada Lat: 44.883
Local Time: 9:34 AM GMT ( 9:34 GMT) Lon: -63.5
Time Zone: GMT Elev: 475 ft

Show me the last for .
Show Decoded

2018-05-24 09:00 METAR CYHZ 240900Z 34008KT 15SM FEW023 FEW170 01/M01 A2996 RMK SC1AC2 SC TR
                 SLP151 =
2018-05-24 08:00 METAR CYHZ 240800Z 35008KT 15SM BKN023 02/M01 A2994 RMK SC7 SLP143 =
2018-05-24 07:00 METAR CYHZ 240700Z 34011KT 15SM SCT017 BKN210 02/M01 A2993 RMK SC4CI1 SLP140 =
2018-05-24 06:00 METAR CYHZ 240600Z 36013KT 15SM BKN022 03/M00 A2992 RMK SF6 SLP135 =
2018-05-24 05:00 METAR CYHZ 240500Z 35017G26KT 15SM OVC018 03/01 A2991 RMK SC8 SLP131 =
2018-05-24 04:00 METAR CYHZ 240400Z 35015G21KT 15SM OVC016 04/02 A2991 RMK ST8 SLP134 =
2018-05-24 03:00 METAR CYHZ 240300Z 35015G21KT 15SM OVC011 04/02 A2991 RMK ST8 SLP133 =
2018-05-24 02:00 METAR CYHZ 240200Z 35017KT 15SM OVC010 05/03 A2990 RMK ST8 SLP129 =
2018-05-24 01:22 METAR CYHZ 240122Z 34013G21KT 15SM OVC007 05/04 A2989 RMK ST8 SLP128 =
2018-05-24 01:00 METAR CYHZ 240100Z 36015G21KT 15SM OVC008 05/04 A2988 RMK SC8 SLP124 =
2018-05-24 00:32 METAR CYHZ 240032Z 35014G22KT 15SM OVC007 06/04 A2987 RMK SC8 PRESRR SLP120 =
2018-05-24 00:00 METAR CYHZ 240000Z 35017G23KT 15SM OVC012 06/04 A2985 RMK SC8 PRESRR SLP113 =
2018-05-23 23:21 METAR CYHZ 232321Z 34019KT 15SM BKN014 08/05 A2981 RMK SC7 SLP100 =
2018-05-23 23:00 METAR CYHZ 232300Z 35012G19KT 15SM SCT017 BKN120 09/05 A2980 RMK SC4AC2 PRESRR
                 SLP096 =
2018-05-23 22:00 METAR CYHZ 232200Z 02012KT 15SM SCT012 BKN056 09/06 A2976 RMK CF4SC3 SLP083 =
2018-05-23 21:43 METAR CYHZ 232143Z 34014KT 15SM BKN011 BKN050 10/07 A2977 RMK CF5SC2 SLP086 =
2018-05-23 21:00 METAR CYHZ 232100Z 31023KT 15SM FEW035 BKN060 BKN260 14/09 A2975 RMK CU2SC4CI1
                 SLP078 DENSITY ALT 700FT =
2018-05-23 20:00 METAR CYHZ 232000Z 25007KT 15SM BKN060 BKN260 17/09 A2972 RMK SC6CI1 SLP067
                 DENSITY ALT 1100FT =
2018-05-23 19:00 METAR CYHZ 231900Z 30007KT 15SM FEW040 BKN051 18/08 A2971 RMK CU2SC5 SLP063
                 DENSITY ALT 1200FT =
2018-05-23 18:00 METAR CYHZ 231800Z 32007KT 300V360 15SM BKN050 BKN110 BKN270 17/08 A2971 RMK
                 CU5AC1CI1 SLP065 DENSITY ALT 1100FT =
2018-05-23 17:00 METAR CYHZ 231700Z VRB06KT 15SM SCT040 SCT270 17/07 A2973 RMK CU3CI1 SLP070
                 DENSITY ALT 1100FT =
2018-05-23 16:00 METAR CYHZ 231600Z VRB02KT 15SM FEW030 SCT060 SCT110 BKN270 15/08 A2977 RMK
                 CU2SC1AC1CI1 SLP084 DENSITY ALT 800FT =
2018-05-23 15:00 METAR CYHZ 231500Z 15005KT 110V170 15SM FEW025 SCT060 BKN085 13/09 A2980 RMK
                 CU1SC2AC4 SLP094 DENSITY ALT 500FT =
2018-05-23 14:00 METAR CYHZ 231400Z 14004KT 110V180 15SM FEW020 SCT060 BKN085 12/10 A2980 RMK
                 CF1SC3AC3 SLP097 =
2018-05-23 13:00 METAR CYHZ 231300Z 14006KT 120V190 15SM FEW015 BKN050 OVC085 11/10 A2983 RMK
                 CF2SC3AC3 SLP105 =
2018-05-23 12:00 METAR CYHZ 231200Z 16007KT 15SM FEW004 SCT045 OVC085 10/10 A2985 RMK SF2SC2AC4
                 SLP112 =
2018-05-23 11:00 METAR CYHZ 231100Z 14008KT 15SM SCT002 BKN040 OVC080 10/10 A2987 RMK SF3SC2AC3
                 VIS LWR E-SE SLP118 =
2018-05-23 10:00 METAR CYHZ 231000Z 13007KT 15SM OVC084 10/10 A2988 RMK AC8 SLP122 =

Support USWX by starting your Amazon purchase here.